createdAt,value
2023-03-10T00:00:46.545Z,99.76
2023-03-10T00:03:13.138Z,98.81
2023-03-10T00:05:40.336Z,98.40
2023-03-10T00:08:07.350Z,98.87
2023-03-10T00:10:34.110Z,98.45
2023-03-10T00:13:00.598Z,98.71
2023-03-10T00:15:27.118Z,98.74
2023-03-10T00:17:53.642Z,98.82
2023-03-10T00:20:20.297Z,98.72
2023-03-10T00:22:46.846Z,98.16
2023-03-10T00:25:13.980Z,98.24
2023-03-10T00:27:40.454Z,98.33
2023-03-10T00:30:08.231Z,98.57
2023-03-10T00:32:35.497Z,98.89
2023-03-10T00:35:02.649Z,98.54
2023-03-10T00:37:29.069Z,98.35
2023-03-10T00:39:55.750Z,98.21
2023-03-10T00:42:22.343Z,98.47
2023-03-10T00:44:48.776Z,98.68
2023-03-10T00:47:15.508Z,98.34
2023-03-10T00:49:41.974Z,98.55
2023-03-10T00:52:08.501Z,98.55
2023-03-10T00:54:35.048Z,98.70
2023-03-10T00:57:01.794Z,98.72
2023-03-10T00:59:29.622Z,98.50
2023-03-10T01:01:59.565Z,98.56
2023-03-10T01:04:26.404Z,98.20
2023-03-10T01:06:53.014Z,98.67
2023-03-10T01:09:19.561Z,98.88
2023-03-10T01:11:46.217Z,99.49
2023-03-10T01:14:15.260Z,100.00
2023-03-10T01:16:41.977Z,99.64
2023-03-10T01:19:08.500Z,99.88
2023-03-10T01:21:37.984Z,100.00
2023-03-10T01:24:06.900Z,100.00
2023-03-10T01:26:33.490Z,100.00
2023-03-10T01:28:59.984Z,99.96
2023-03-10T01:31:26.573Z,99.97
2023-03-10T01:33:53.239Z,99.93
2023-03-10T01:36:23.073Z,100.00
2023-03-10T01:38:49.526Z,100.00
2023-03-10T01:41:17.630Z,99.92
2023-03-10T01:43:53.832Z,100.00
2023-03-10T01:46:39.152Z,99.98
2023-03-10T01:49:14.092Z,99.97
2023-03-10T01:51:44.227Z,99.97
2023-03-10T01:54:17.131Z,100.00
2023-03-10T01:56:45.207Z,100.00
2023-03-10T01:59:12.668Z,99.93
2023-03-10T02:01:39.299Z,100.00
2023-03-10T02:04:19.849Z,100.00
2023-03-10T02:06:48.505Z,100.00
2023-03-10T02:09:16.871Z,100.00
2023-03-10T02:11:45.054Z,100.00
2023-03-10T02:14:11.805Z,100.00
2023-03-10T02:16:38.379Z,100.00
2023-03-10T02:19:09.825Z,100.00
2023-03-10T02:21:48.336Z,100.00
2023-03-10T02:24:49.699Z,100.00
2023-03-10T02:27:29.852Z,100.00
2023-03-10T02:30:04.429Z,100.00
2023-03-10T02:32:34.668Z,100.00
2023-03-10T02:35:01.583Z,100.00
2023-03-10T02:37:31.885Z,100.00
2023-03-10T02:39:59.091Z,100.00
2023-03-10T02:42:32.785Z,100.00
2023-03-10T02:44:59.644Z,100.00
2023-03-10T02:47:26.137Z,100.00
2023-03-10T02:49:52.681Z,100.00
2023-03-10T02:52:29.564Z,100.00
2023-03-10T02:54:56.012Z,100.00
2023-03-10T02:57:26.119Z,100.00
2023-03-10T02:59:52.590Z,100.00
2023-03-10T03:02:19.178Z,100.00
2023-03-10T03:04:45.734Z,100.00
2023-03-10T03:07:12.271Z,100.00
2023-03-10T03:09:38.737Z,100.00
2023-03-10T03:12:05.564Z,100.00
2023-03-10T03:14:32.044Z,100.00
2023-03-10T03:16:58.606Z,100.00
2023-03-10T03:19:25.209Z,100.00
2023-03-10T03:21:51.690Z,100.00
2023-03-10T03:24:19.263Z,100.00
2023-03-10T03:26:45.768Z,100.00
2023-03-10T03:29:12.339Z,100.00
2023-03-10T03:31:38.931Z,100.00
2023-03-10T03:34:06.542Z,100.00
2023-03-10T03:36:33.448Z,100.00
2023-03-10T03:38:59.913Z,100.00
2023-03-10T03:41:26.401Z,100.00
2023-03-10T03:43:52.932Z,100.00
2023-03-10T03:46:19.473Z,100.00
2023-03-10T03:48:46.126Z,100.00
2023-03-10T03:51:12.672Z,100.00
2023-03-10T03:53:39.112Z,100.00
2023-03-10T03:56:05.964Z,100.00
2023-03-10T03:58:32.746Z,100.00
2023-03-10T04:00:59.455Z,100.00
2023-03-10T04:03:26.027Z,100.00
2023-03-10T04:05:52.750Z,100.00
2023-03-10T04:08:19.214Z,100.00
2023-03-10T04:10:53.410Z,100.00
2023-03-10T04:13:20.366Z,100.00
2023-03-10T04:15:47.335Z,100.00
2023-03-10T04:18:14.223Z,100.00
2023-03-10T04:20:40.715Z,100.00
2023-03-10T04:23:07.133Z,100.00
2023-03-10T04:25:33.724Z,100.00
2023-03-10T04:28:00.359Z,100.00
2023-03-10T04:30:26.993Z,100.00
2023-03-10T04:32:53.471Z,100.00
2023-03-10T04:35:20.204Z,100.00
2023-03-10T04:37:46.750Z,100.00
2023-03-10T04:40:13.911Z,100.00
2023-03-10T04:42:41.096Z,100.00
2023-03-10T04:45:08.751Z,100.00
2023-03-10T04:47:35.316Z,100.00
2023-03-10T04:50:02.153Z,100.00
2023-03-10T04:52:28.592Z,100.00
2023-03-10T04:54:55.118Z,100.00
2023-03-10T04:57:21.820Z,100.00
2023-03-10T04:59:48.420Z,100.00
2023-03-10T05:02:15.007Z,100.00
2023-03-10T05:04:41.971Z,100.00
2023-03-10T05:07:08.521Z,100.00
2023-03-10T05:09:36.357Z,100.00
2023-03-10T05:12:03.330Z,100.00
2023-03-10T05:14:29.965Z,100.00
2023-03-10T05:16:56.395Z,100.00
2023-03-10T05:19:23.364Z,100.00
2023-03-10T05:21:49.913Z,100.00
2023-03-10T05:24:16.455Z,100.00
2023-03-10T05:26:43.271Z,100.00
2023-03-10T05:29:09.823Z,100.00
2023-03-10T05:31:36.585Z,100.00
2023-03-10T05:34:03.155Z,100.00
2023-03-10T05:36:29.702Z,100.00
2023-03-10T05:38:56.360Z,100.00
2023-03-10T05:41:22.907Z,100.00
2023-03-10T05:43:49.466Z,100.00
2023-03-10T05:46:16.019Z,100.00
2023-03-10T05:48:42.546Z,100.00
2023-03-10T05:51:11.803Z,100.00
2023-03-10T05:53:39.445Z,100.00
2023-03-10T05:56:11.383Z,100.00
2023-03-10T05:58:38.982Z,100.00
2023-03-10T06:01:06.348Z,100.00
2023-03-10T06:03:33.672Z,100.00
2023-03-10T06:06:00.787Z,100.00
2023-03-10T06:08:27.604Z,100.00
2023-03-10T06:10:55.108Z,100.00
2023-03-10T06:13:21.746Z,100.00
2023-03-10T06:15:57.440Z,100.00
2023-03-10T06:18:25.092Z,100.00
2023-03-10T06:20:52.037Z,100.00
2023-03-10T06:23:18.593Z,100.00
2023-03-10T06:25:45.258Z,100.00
2023-03-10T06:28:12.323Z,100.00
2023-03-10T06:30:38.875Z,100.00
2023-03-10T06:33:05.585Z,100.00
2023-03-10T06:35:32.561Z,100.00
2023-03-10T06:37:59.244Z,100.00
2023-03-10T06:40:26.108Z,100.00
2023-03-10T06:42:52.591Z,100.00
2023-03-10T06:45:19.372Z,100.00
2023-03-10T06:47:46.005Z,100.00
2023-03-10T06:50:13.350Z,100.00
2023-03-10T06:52:39.902Z,100.00
2023-03-10T06:55:07.152Z,100.00
2023-03-10T06:57:34.131Z,100.00
2023-03-10T07:00:00.681Z,100.00
2023-03-10T07:02:27.320Z,100.00
2023-03-10T07:04:53.984Z,100.00
2023-03-10T07:07:21.329Z,100.00
2023-03-10T07:09:47.794Z,100.00
2023-03-10T07:12:14.357Z,100.00
2023-03-10T07:14:40.862Z,100.00
2023-03-10T07:17:07.504Z,100.00
2023-03-10T07:19:34.171Z,100.00
2023-03-10T07:22:00.709Z,100.00
2023-03-10T07:24:27.263Z,100.00
2023-03-10T07:26:54.126Z,100.00
2023-03-10T07:29:20.654Z,100.00
2023-03-10T07:31:47.307Z,100.00
2023-03-10T07:34:13.846Z,100.00
2023-03-10T07:36:40.502Z,100.00
2023-03-10T07:39:07.038Z,100.00
2023-03-10T07:41:33.465Z,100.00
2023-03-10T07:44:00.136Z,73.31
2023-03-10T07:46:26.725Z,73.06
2023-03-10T07:48:53.660Z,72.08
2023-03-10T07:51:20.717Z,71.36
2023-03-10T07:53:47.239Z,64.59
2023-03-10T07:56:14.698Z,62.82
2023-03-10T07:58:41.492Z,65.36
2023-03-10T08:01:13.708Z,59.14
2023-03-10T08:03:40.826Z,58.82
2023-03-10T08:06:16.621Z,57.68
2023-03-10T08:08:43.192Z,58.67
2023-03-10T08:11:09.864Z,61.52
2023-03-10T08:13:37.856Z,57.00
2023-03-10T08:16:05.302Z,54.66
2023-03-10T08:18:32.589Z,52.87
2023-03-10T08:20:59.272Z,53.67
2023-03-10T08:23:26.159Z,52.69
2023-03-10T08:25:52.860Z,50.04
2023-03-10T08:28:19.333Z,49.41
2023-03-10T08:31:01.229Z,48.53
2023-03-10T08:33:29.916Z,49.86
2023-03-10T08:36:03.946Z,50.96
2023-03-10T08:38:30.461Z,49.60
2023-03-10T08:40:57.050Z,49.52
2023-03-10T08:43:23.765Z,48.96
2023-03-10T08:45:50.315Z,48.80
2023-03-10T08:48:16.898Z,47.33
2023-03-10T08:50:43.334Z,48.13
2023-03-10T08:53:09.881Z,47.67
2023-03-10T08:55:36.422Z,48.04
2023-03-10T08:58:03.076Z,47.96
2023-03-10T09:00:29.612Z,47.81
2023-03-10T09:02:56.311Z,48.53
2023-03-10T09:05:23.065Z,49.11
2023-03-10T09:07:49.537Z,48.86
2023-03-10T09:10:16.714Z,47.93
2023-03-10T09:12:43.569Z,47.40
2023-03-10T09:15:10.883Z,46.53
2023-03-10T09:17:40.237Z,46.34
2023-03-10T09:20:07.499Z,46.22
2023-03-10T09:22:34.040Z,46.64
2023-03-10T09:25:00.886Z,44.25
2023-03-10T09:27:27.498Z,43.60
2023-03-10T09:29:53.936Z,44.15
2023-03-10T09:32:20.604Z,43.99
2023-03-10T09:34:47.701Z,43.55
2023-03-10T09:37:14.198Z,43.40
2023-03-10T09:39:40.866Z,42.36
2023-03-10T09:42:37.291Z,42.71
2023-03-10T09:45:12.704Z,42.36
2023-03-10T09:47:53.103Z,41.93
2023-03-10T09:50:25.603Z,40.57
2023-03-10T09:53:37.530Z,41.69
2023-03-10T09:56:11.752Z,41.19
2023-03-10T09:58:45.673Z,41.23
2023-03-10T10:01:21.633Z,40.59
2023-03-10T10:04:00.241Z,41.31
2023-03-10T10:06:28.956Z,40.82
2023-03-10T10:09:05.033Z,41.20
2023-03-10T10:11:34.033Z,42.07
2023-03-10T10:14:22.320Z,41.20
2023-03-10T10:17:01.450Z,40.60
2023-03-10T10:19:28.852Z,40.06
2023-03-10T10:22:02.378Z,39.92
2023-03-10T10:24:29.300Z,40.46
2023-03-10T10:26:56.349Z,40.58
2023-03-10T10:29:33.682Z,40.47
2023-03-10T10:32:05.440Z,40.35
2023-03-10T10:34:32.958Z,40.49
2023-03-10T10:37:00.188Z,40.76
2023-03-10T10:39:35.547Z,40.71
2023-03-10T10:42:21.124Z,40.76
2023-03-10T10:44:47.633Z,40.32
2023-03-10T10:47:34.711Z,40.10
2023-03-10T10:50:20.420Z,40.29
2023-03-10T10:52:48.283Z,39.60
2023-03-10T10:55:29.851Z,40.05
2023-03-10T10:58:01.673Z,39.54
2023-03-10T11:00:37.002Z,39.81
2023-03-10T11:03:33.098Z,40.30
2023-03-10T11:06:00.715Z,40.24
2023-03-10T11:08:27.191Z,40.66
2023-03-10T11:11:02.921Z,40.00
2023-03-10T11:13:39.881Z,39.99
2023-03-10T11:16:26.462Z,39.61
2023-03-10T11:19:01.267Z,39.26
2023-03-10T11:21:34.920Z,39.49
2023-03-10T11:24:46.664Z,40.05
2023-03-10T11:27:18.579Z,39.97
2023-03-10T11:30:12.283Z,39.87
2023-03-10T11:32:51.167Z,39.76
2023-03-10T11:35:33.569Z,40.14
2023-03-10T11:38:04.748Z,39.44
2023-03-10T11:40:43.171Z,39.06
2023-03-10T11:43:23.777Z,39.28
2023-03-10T11:45:52.758Z,39.59
2023-03-10T11:48:44.333Z,39.05
2023-03-10T11:51:22.387Z,39.30
2023-03-10T11:53:58.050Z,39.64
2023-03-10T11:56:27.012Z,39.67
2023-03-10T11:59:15.306Z,39.56
2023-03-10T12:02:19.431Z,39.46
2023-03-10T12:04:55.266Z,39.80
2023-03-10T12:07:52.847Z,39.95
2023-03-10T12:10:21.422Z,39.11
2023-03-10T12:12:49.943Z,39.47
2023-03-10T12:15:33.016Z,39.67
2023-03-10T12:17:59.767Z,40.04
2023-03-10T12:20:31.216Z,39.98
2023-03-10T12:23:26.689Z,40.04
2023-03-10T12:25:53.266Z,40.15
2023-03-10T12:28:19.729Z,40.12
2023-03-10T12:30:50.756Z,40.11
2023-03-10T12:33:32.316Z,40.43
2023-03-10T12:36:33.169Z,40.45
2023-03-10T12:39:27.610Z,40.55
2023-03-10T12:42:26.279Z,40.89
2023-03-10T12:45:22.164Z,41.16
2023-03-10T12:48:03.350Z,40.96
2023-03-10T12:50:49.758Z,41.35
2023-03-10T12:53:28.596Z,41.08
2023-03-10T12:56:19.464Z,41.13
2023-03-10T12:58:50.616Z,41.25
2023-03-10T13:01:22.753Z,41.38
2023-03-10T13:03:53.247Z,41.29
2023-03-10T13:06:29.550Z,41.25
2023-03-10T13:09:18.814Z,41.19
2023-03-10T13:11:53.298Z,40.99
2023-03-10T13:14:24.535Z,40.76
2023-03-10T13:16:59.584Z,40.57
2023-03-10T13:19:29.131Z,40.29
2023-03-10T13:21:56.143Z,40.29
2023-03-10T13:24:25.772Z,40.28
2023-03-10T13:27:23.946Z,40.58
2023-03-10T13:29:55.817Z,40.74
2023-03-10T13:32:22.805Z,40.96
2023-03-10T13:34:49.480Z,40.84
2023-03-10T13:37:16.295Z,40.76
2023-03-10T13:39:44.812Z,40.57
2023-03-10T13:42:24.067Z,40.86
2023-03-10T13:44:55.099Z,41.25
2023-03-10T13:47:26.398Z,41.64
2023-03-10T13:50:02.193Z,41.98
2023-03-10T13:52:30.714Z,42.18
2023-03-10T13:55:16.940Z,42.53
2023-03-10T13:57:45.873Z,42.49
2023-03-10T14:00:19.431Z,42.64
2023-03-10T14:02:48.597Z,42.75
2023-03-10T14:05:44.498Z,43.01
2023-03-10T14:08:24.442Z,43.02
2023-03-10T14:10:51.816Z,43.18
2023-03-10T14:13:45.112Z,43.16
2023-03-10T14:16:11.744Z,43.26
2023-03-10T14:18:40.517Z,43.47
2023-03-10T14:21:24.061Z,43.67
2023-03-10T14:23:50.483Z,43.82
2023-03-10T14:26:17.643Z,44.06
2023-03-10T14:28:44.231Z,44.39
2023-03-10T14:31:24.460Z,44.87
2023-03-10T14:33:51.455Z,45.17
2023-03-10T14:36:17.918Z,45.56
2023-03-10T14:38:44.589Z,45.97
2023-03-10T14:41:14.002Z,46.14
2023-03-10T14:43:41.909Z,46.42
2023-03-10T14:46:11.806Z,46.83
2023-03-10T14:48:39.963Z,47.03
2023-03-10T14:51:06.667Z,47.22
2023-03-10T14:53:33.847Z,47.56
2023-03-10T14:56:02.162Z,47.69
2023-03-10T14:58:33.410Z,48.01
2023-03-10T15:01:00.771Z,47.93
2023-03-10T15:03:27.655Z,48.41
2023-03-10T15:05:54.111Z,48.53
2023-03-10T15:08:20.693Z,48.65
2023-03-10T15:10:50.130Z,49.12
2023-03-10T15:13:18.676Z,49.67
2023-03-10T15:15:47.361Z,49.33
2023-03-10T15:18:17.104Z,50.45
2023-03-10T15:20:43.940Z,50.72
2023-03-10T15:23:13.723Z,51.00
2023-03-10T15:25:43.716Z,51.06
2023-03-10T15:28:11.868Z,51.50
2023-03-10T15:30:38.309Z,51.80
2023-03-10T15:33:04.755Z,51.86
2023-03-10T15:35:31.805Z,51.76
2023-03-10T15:37:59.022Z,51.81
2023-03-10T15:40:29.348Z,51.61
2023-03-10T15:42:56.263Z,51.60
2023-03-10T15:45:24.101Z,51.66
2023-03-10T15:47:51.248Z,51.71
2023-03-10T15:50:19.880Z,51.98
2023-03-10T15:52:58.017Z,51.90
2023-03-10T15:55:25.639Z,51.83
2023-03-10T15:57:52.823Z,52.05
2023-03-10T16:00:22.436Z,52.30
2023-03-10T16:02:50.196Z,52.46
2023-03-10T16:05:18.106Z,52.88
2023-03-10T16:07:44.822Z,52.96
2023-03-10T16:10:13.594Z,52.92
2023-03-10T16:12:40.565Z,53.32
2023-03-10T16:15:08.283Z,53.44
2023-03-10T16:17:34.868Z,53.53
2023-03-10T16:20:01.356Z,53.31
2023-03-10T16:22:28.246Z,53.76
2023-03-10T16:24:54.787Z,53.83
2023-03-10T16:27:21.210Z,53.79
2023-03-10T16:29:47.814Z,54.01
2023-03-10T16:32:14.555Z,54.06
2023-03-10T16:34:41.065Z,53.92
2023-03-10T16:37:07.555Z,54.03
2023-03-10T16:39:34.153Z,54.09
2023-03-10T16:42:00.809Z,54.51
2023-03-10T16:44:27.356Z,54.32
2023-03-10T16:46:53.932Z,54.55
2023-03-10T16:49:20.429Z,54.65
2023-03-10T16:51:48.340Z,54.57
2023-03-10T16:54:20.811Z,55.33
2023-03-10T16:56:52.455Z,55.46
2023-03-10T16:59:21.764Z,55.29
2023-03-10T17:01:49.306Z,55.34
2023-03-10T17:04:16.080Z,55.33
2023-03-10T17:06:42.749Z,55.40
2023-03-10T17:09:11.194Z,55.59
2023-03-10T17:11:45.123Z,56.02
2023-03-10T17:14:14.459Z,55.97
2023-03-10T17:16:42.301Z,56.05
2023-03-10T17:19:13.387Z,56.38
2023-03-10T17:21:43.443Z,56.94
2023-03-10T17:24:10.733Z,57.63
2023-03-10T17:26:37.631Z,58.66
2023-03-10T17:29:04.834Z,58.56
2023-03-10T17:31:31.426Z,58.92
2023-03-10T17:34:00.946Z,59.07
2023-03-10T17:36:28.371Z,58.73
2023-03-10T17:38:57.162Z,59.15
2023-03-10T17:41:24.796Z,58.99
2023-03-10T17:43:53.112Z,58.76
2023-03-10T17:46:27.631Z,59.10
2023-03-10T17:48:54.705Z,58.93
2023-03-10T17:51:24.671Z,58.84
2023-03-10T17:53:51.607Z,58.85
2023-03-10T17:56:18.645Z,58.95
2023-03-10T17:58:45.173Z,59.14
2023-03-10T18:01:20.390Z,59.57
2023-03-10T18:03:48.464Z,61.02
2023-03-10T18:06:21.702Z,60.39
2023-03-10T18:08:49.687Z,60.38
2023-03-10T18:11:16.835Z,60.09
2023-03-10T18:13:44.196Z,60.13
2023-03-10T18:16:25.628Z,60.26
2023-03-10T18:18:52.642Z,60.45
2023-03-10T18:21:19.975Z,61.19
2023-03-10T18:23:47.106Z,61.19
2023-03-10T18:26:17.609Z,61.09
2023-03-10T18:28:44.706Z,61.99
2023-03-10T18:31:20.474Z,62.10
2023-03-10T18:33:47.898Z,63.47
2023-03-10T18:36:15.816Z,63.69
2023-03-10T18:38:43.797Z,66.72
2023-03-10T18:41:10.944Z,67.34
2023-03-10T18:43:37.607Z,69.12
2023-03-10T18:46:04.625Z,68.31
2023-03-10T18:48:31.261Z,68.55
2023-03-10T18:50:59.544Z,68.58
2023-03-10T18:53:27.469Z,68.86
2023-03-10T18:55:54.623Z,69.35
2023-03-10T18:58:22.080Z,69.17
2023-03-10T19:00:50.012Z,70.39
2023-03-10T19:03:17.891Z,70.95
2023-03-10T19:05:44.645Z,71.63
2023-03-10T19:08:11.842Z,72.19
2023-03-10T19:10:39.308Z,72.29
2023-03-10T19:13:06.460Z,73.65
2023-03-10T19:15:33.470Z,73.25
2023-03-10T19:17:59.973Z,73.03
2023-03-10T19:20:26.659Z,71.97
2023-03-10T19:22:53.320Z,72.96
2023-03-10T19:25:20.471Z,73.32
2023-03-10T19:27:47.249Z,73.75
2023-03-10T19:30:16.177Z,74.85
2023-03-10T19:32:43.900Z,75.77
2023-03-10T19:35:11.559Z,77.59
2023-03-10T19:37:39.599Z,78.99
2023-03-10T19:40:07.422Z,79.91
2023-03-10T19:42:35.689Z,82.92
2023-03-10T19:45:02.547Z,81.73
2023-03-10T19:47:32.302Z,84.40
2023-03-10T19:49:58.908Z,85.32
2023-03-10T19:52:25.681Z,84.41
2023-03-10T19:54:52.311Z,83.47
2023-03-10T19:57:18.856Z,84.82
2023-03-10T19:59:45.905Z,85.09
2023-03-10T20:02:14.851Z,85.10
2023-03-10T20:04:41.850Z,86.27
2023-03-10T20:07:08.932Z,84.40
2023-03-10T20:09:35.910Z,85.23
2023-03-10T20:12:02.946Z,86.09
2023-03-10T20:14:29.979Z,86.86
2023-03-10T20:16:56.426Z,87.55
2023-03-10T20:19:22.896Z,86.79
2023-03-10T20:21:50.270Z,87.06
2023-03-10T20:24:18.434Z,87.50
2023-03-10T20:26:44.980Z,87.62
2023-03-10T20:29:12.427Z,87.83
2023-03-10T20:31:38.949Z,87.16
2023-03-10T20:34:06.643Z,87.31
2023-03-10T20:36:33.924Z,88.17
2023-03-10T20:39:00.692Z,88.86
2023-03-10T20:41:27.319Z,89.29
2023-03-10T20:43:53.832Z,89.34
2023-03-10T20:46:20.479Z,89.44
2023-03-10T20:48:49.978Z,89.32
2023-03-10T20:51:18.691Z,91.05
2023-03-10T20:53:45.798Z,91.20
2023-03-10T20:56:12.268Z,90.69
2023-03-10T20:58:38.818Z,90.31
2023-03-10T21:01:05.586Z,89.03
2023-03-10T21:03:32.493Z,87.23
2023-03-10T21:05:58.962Z,89.52
2023-03-10T21:08:25.377Z,89.97
2023-03-10T21:10:51.787Z,90.46
2023-03-10T21:13:18.371Z,90.17
2023-03-10T21:15:45.220Z,89.93
2023-03-10T21:18:11.614Z,91.47
2023-03-10T21:20:38.211Z,91.21
2023-03-10T21:23:04.850Z,91.08
2023-03-10T21:25:31.288Z,93.62
2023-03-10T21:27:58.044Z,93.86
2023-03-10T21:30:27.106Z,94.75
2023-03-10T21:32:53.617Z,94.89
2023-03-10T21:35:20.140Z,95.00
2023-03-10T21:37:46.701Z,94.74
2023-03-10T21:40:15.309Z,95.79
2023-03-10T21:42:42.279Z,95.38
2023-03-10T21:45:11.311Z,95.74
2023-03-10T21:47:37.772Z,95.88
2023-03-10T21:50:04.535Z,95.84
2023-03-10T21:52:31.085Z,96.26
2023-03-10T21:54:57.737Z,96.46
2023-03-10T21:57:24.385Z,96.09
2023-03-10T21:59:50.793Z,96.31
2023-03-10T22:02:28.439Z,96.24
2023-03-10T22:04:55.631Z,96.50
2023-03-10T22:07:22.570Z,96.95
2023-03-10T22:09:49.192Z,97.13
2023-03-10T22:12:15.857Z,97.28
2023-03-10T22:14:42.912Z,97.80
2023-03-10T22:17:09.550Z,98.04
2023-03-10T22:19:36.075Z,98.10
2023-03-10T22:22:02.526Z,98.06
2023-03-10T22:24:28.989Z,98.11
2023-03-10T22:26:55.360Z,98.15
2023-03-10T22:29:21.744Z,98.51
2023-03-10T22:31:51.579Z,99.51
2023-03-10T22:34:17.982Z,99.47
2023-03-10T22:36:44.657Z,98.82
2023-03-10T22:39:11.202Z,98.74
2023-03-10T22:41:38.786Z,98.82
2023-03-10T22:44:05.733Z,99.17
2023-03-10T22:46:32.338Z,99.36
2023-03-10T22:48:59.124Z,99.66
2023-03-10T22:51:25.978Z,100.00
2023-03-10T22:53:52.431Z,99.99
2023-03-10T22:56:19.161Z,99.97
2023-03-10T22:58:45.753Z,99.94
2023-03-10T23:01:12.228Z,100.00
2023-03-10T23:03:38.964Z,100.00
2023-03-10T23:06:06.242Z,99.95
2023-03-10T23:08:33.659Z,100.00
2023-03-10T23:11:00.178Z,100.00
2023-03-10T23:13:26.716Z,100.00
2023-03-10T23:15:53.482Z,100.00
2023-03-10T23:18:19.958Z,100.00
2023-03-10T23:20:47.792Z,100.00
2023-03-10T23:23:15.876Z,100.00
2023-03-10T23:25:45.614Z,100.00
2023-03-10T23:28:12.027Z,100.00
2023-03-10T23:30:41.097Z,100.00
2023-03-10T23:33:08.270Z,100.00
2023-03-10T23:35:35.529Z,100.00
2023-03-10T23:38:03.951Z,100.00
2023-03-10T23:40:32.240Z,100.00
2023-03-10T23:43:00.478Z,100.00
2023-03-10T23:45:29.737Z,100.00
2023-03-10T23:47:57.416Z,100.00
2023-03-10T23:50:30.709Z,100.00
2023-03-10T23:52:58.156Z,100.00
2023-03-10T23:55:29.193Z,100.00
2023-03-10T23:57:56.100Z,100.00
